sensor_id;sensor_type;location;lat;lon;timestamp;P1;durP1;ratioP1;P2;durP2;ratioP2
51718;SDS011;37795;53.236;5.704;2022-10-16T00:00:43;5.30;;;2.22;;
51718;SDS011;37795;53.236;5.704;2022-10-16T00:03:09;8.25;;;2.67;;
51718;SDS011;37795;53.236;5.704;2022-10-16T00:05:40;5.93;;;2.13;;
51718;SDS011;37795;53.236;5.704;2022-10-16T00:08:07;8.07;;;2.15;;
51718;SDS011;37795;53.236;5.704;2022-10-16T00:10:33;4.63;;;1.98;;
51718;SDS011;37795;53.236;5.704;2022-10-16T00:12:59;4.55;;;2.08;;
51718;SDS011;37795;53.236;5.704;2022-10-16T00:15:25;4.03;;;2.15;;
51718;SDS011;37795;53.236;5.704;2022-10-16T00:17:51;3.17;;;2.27;;
51718;SDS011;37795;53.236;5.704;2022-10-16T00:20:17;7.13;;;2.05;;
51718;SDS011;37795;53.236;5.704;2022-10-16T00:22:42;7.32;;;2.40;;
51718;SDS011;37795;53.236;5.704;2022-10-16T00:25:08;6.50;;;2.63;;
51718;SDS011;37795;53.236;5.704;2022-10-16T00:27:34;3.73;;;2.30;;
51718;SDS011;37795;53.236;5.704;2022-10-16T00:29:59;5.43;;;2.15;;
51718;SDS011;37795;53.236;5.704;2022-10-16T00:32:25;7.53;;;2.92;;
51718;SDS011;37795;53.236;5.704;2022-10-16T00:34:51;11.43;;;2.53;;
51718;SDS011;37795;53.236;5.704;2022-10-16T00:37:19;5.13;;;2.10;;
51718;SDS011;37795;53.236;5.704;2022-10-16T00:39:45;6.72;;;2.60;;
51718;SDS011;37795;53.236;5.704;2022-10-16T00:42:15;5.68;;;2.13;;
51718;SDS011;37795;53.236;5.704;2022-10-16T00:44:52;7.13;;;2.33;;
51718;SDS011;37795;53.236;5.704;2022-10-16T00:49:50;7.77;;;2.17;;
51718;SDS011;37795;53.236;5.704;2022-10-16T00:52:18;6.70;;;2.30;;
51718;SDS011;37795;53.236;5.704;2022-10-16T00:54:44;7.43;;;2.30;;
51718;SDS011;37795;53.236;5.704;2022-10-16T00:57:11;6.03;;;2.33;;
51718;SDS011;37795;53.236;5.704;2022-10-16T00:59:38;5.75;;;1.95;;
51718;SDS011;37795;53.236;5.704;2022-10-16T01:02:06;4.32;;;2.33;;
51718;SDS011;37795;53.236;5.704;2022-10-16T01:04:38;6.25;;;2.33;;
51718;SDS011;37795;53.236;5.704;2022-10-16T01:12:50;5.47;;;2.00;;
51718;SDS011;37795;53.236;5.704;2022-10-16T01:16:19;8.65;;;2.08;;
51718;SDS011;37795;53.236;5.704;2022-10-16T01:18:30;4.85;;;1.98;;
51718;SDS011;37795;53.236;5.704;2022-10-16T01:27:10;8.60;;;2.10;;
51718;SDS011;37795;53.236;5.704;2022-10-16T01:32:26;8.15;;;2.20;;
51718;SDS011;37795;53.236;5.704;2022-10-16T01:40:11;6.15;;;1.95;;
51718;SDS011;37795;53.236;5.704;2022-10-16T01:42:42;5.30;;;1.88;;
51718;SDS011;37795;53.236;5.704;2022-10-16T01:45:11;5.75;;;1.90;;
51718;SDS011;37795;53.236;5.704;2022-10-16T01:47:40;6.20;;;2.17;;
51718;SDS011;37795;53.236;5.704;2022-10-16T01:50:08;5.80;;;2.25;;
51718;SDS011;37795;53.236;5.704;2022-10-16T01:52:35;3.88;;;2.03;;
51718;SDS011;37795;53.236;5.704;2022-10-16T01:55:05;3.13;;;1.70;;
51718;SDS011;37795;53.236;5.704;2022-10-16T01:57:34;5.40;;;2.22;;
51718;SDS011;37795;53.236;5.704;2022-10-16T02:00:05;4.10;;;1.73;;
51718;SDS011;37795;53.236;5.704;2022-10-16T02:02:34;5.57;;;1.73;;
51718;SDS011;37795;53.236;5.704;2022-10-16T02:05:17;4.45;;;2.00;;
51718;SDS011;37795;53.236;5.704;2022-10-16T02:07:43;4.35;;;2.17;;
51718;SDS011;37795;53.236;5.704;2022-10-16T02:10:09;5.57;;;2.17;;
51718;SDS011;37795;53.236;5.704;2022-10-16T02:12:36;6.00;;;2.45;;
51718;SDS011;37795;53.236;5.704;2022-10-16T02:15:05;4.90;;;2.15;;
51718;SDS011;37795;53.236;5.704;2022-10-16T02:17:31;4.05;;;1.83;;
51718;SDS011;37795;53.236;5.704;2022-10-16T02:19:57;4.72;;;2.08;;
51718;SDS011;37795;53.236;5.704;2022-10-16T02:22:27;3.60;;;2.00;;
51718;SDS011;37795;53.236;5.704;2022-10-16T02:27:57;4.63;;;2.03;;
51718;SDS011;37795;53.236;5.704;2022-10-16T02:30:49;6.07;;;1.95;;
51718;SDS011;37795;53.236;5.704;2022-10-16T02:33:24;4.20;;;1.80;;
51718;SDS011;37795;53.236;5.704;2022-10-16T02:35:51;3.13;;;1.75;;
51718;SDS011;37795;53.236;5.704;2022-10-16T02:38:19;4.82;;;2.17;;
51718;SDS011;37795;53.236;5.704;2022-10-16T02:40:46;4.22;;;2.10;;
51718;SDS011;37795;53.236;5.704;2022-10-16T02:43:12;7.87;;;2.57;;
51718;SDS011;37795;53.236;5.704;2022-10-16T02:45:38;5.43;;;2.20;;
51718;SDS011;37795;53.236;5.704;2022-10-16T02:48:04;5.00;;;2.38;;
51718;SDS011;37795;53.236;5.704;2022-10-16T02:50:30;5.25;;;2.70;;
51718;SDS011;37795;53.236;5.704;2022-10-16T02:52:56;3.67;;;2.57;;
51718;SDS011;37795;53.236;5.704;2022-10-16T02:55:21;5.50;;;3.25;;
51718;SDS011;37795;53.236;5.704;2022-10-16T02:57:47;5.32;;;2.95;;
51718;SDS011;37795;53.236;5.704;2022-10-16T03:00:14;6.87;;;2.80;;
51718;SDS011;37795;53.236;5.704;2022-10-16T03:02:41;6.35;;;3.13;;
51718;SDS011;37795;53.236;5.704;2022-10-16T03:05:07;4.97;;;2.67;;
51718;SDS011;37795;53.236;5.704;2022-10-16T03:07:33;3.88;;;2.75;;
51718;SDS011;37795;53.236;5.704;2022-10-16T03:09:59;8.37;;;2.90;;
51718;SDS011;37795;53.236;5.704;2022-10-16T03:12:27;5.10;;;2.97;;
51718;SDS011;37795;53.236;5.704;2022-10-16T03:14:54;4.20;;;3.00;;
51718;SDS011;37795;53.236;5.704;2022-10-16T03:17:21;5.28;;;2.80;;
51718;SDS011;37795;53.236;5.704;2022-10-16T03:19:47;5.60;;;3.30;;
51718;SDS011;37795;53.236;5.704;2022-10-16T03:22:13;6.72;;;2.80;;
51718;SDS011;37795;53.236;5.704;2022-10-16T03:24:39;2.97;;;2.58;;
51718;SDS011;37795;53.236;5.704;2022-10-16T03:27:04;5.43;;;2.20;;
51718;SDS011;37795;53.236;5.704;2022-10-16T03:29:30;4.37;;;3.10;;
51718;SDS011;37795;53.236;5.704;2022-10-16T03:31:57;5.47;;;3.00;;
51718;SDS011;37795;53.236;5.704;2022-10-16T03:34:24;4.68;;;2.72;;
51718;SDS011;37795;53.236;5.704;2022-10-16T03:36:50;5.60;;;2.83;;
51718;SDS011;37795;53.236;5.704;2022-10-16T03:39:16;6.88;;;2.50;;
51718;SDS011;37795;53.236;5.704;2022-10-16T03:41:42;4.18;;;2.30;;
51718;SDS011;37795;53.236;5.704;2022-10-16T03:44:08;5.33;;;2.50;;
51718;SDS011;37795;53.236;5.704;2022-10-16T03:46:34;5.60;;;2.43;;
51718;SDS011;37795;53.236;5.704;2022-10-16T03:48:59;4.45;;;2.05;;
51718;SDS011;37795;53.236;5.704;2022-10-16T03:51:25;5.00;;;2.25;;
51718;SDS011;37795;53.236;5.704;2022-10-16T03:53:51;6.37;;;2.40;;
51718;SDS011;37795;53.236;5.704;2022-10-16T03:56:16;6.60;;;2.40;;
51718;SDS011;37795;53.236;5.704;2022-10-16T03:58:42;5.70;;;2.40;;
51718;SDS011;37795;53.236;5.704;2022-10-16T04:01:08;8.25;;;2.38;;
51718;SDS011;37795;53.236;5.704;2022-10-16T04:03:33;5.40;;;2.60;;
51718;SDS011;37795;53.236;5.704;2022-10-16T04:05:59;5.93;;;2.43;;
51718;SDS011;37795;53.236;5.704;2022-10-16T04:08:24;4.67;;;2.50;;
51718;SDS011;37795;53.236;5.704;2022-10-16T04:10:50;5.57;;;2.17;;
51718;SDS011;37795;53.236;5.704;2022-10-16T04:13:16;8.90;;;2.60;;
51718;SDS011;37795;53.236;5.704;2022-10-16T04:15:42;5.82;;;2.28;;
51718;SDS011;37795;53.236;5.704;2022-10-16T04:18:10;6.60;;;2.17;;
51718;SDS011;37795;53.236;5.704;2022-10-16T04:20:36;5.50;;;2.53;;
51718;SDS011;37795;53.236;5.704;2022-10-16T04:23:02;3.67;;;2.00;;
51718;SDS011;37795;53.236;5.704;2022-10-16T04:25:28;3.83;;;2.72;;
51718;SDS011;37795;53.236;5.704;2022-10-16T04:27:55;2.20;;;1.95;;
51718;SDS011;37795;53.236;5.704;2022-10-16T04:30:21;7.93;;;2.73;;
51718;SDS011;37795;53.236;5.704;2022-10-16T04:32:48;5.23;;;2.60;;
51718;SDS011;37795;53.236;5.704;2022-10-16T04:35:15;4.57;;;1.80;;
51718;SDS011;37795;53.236;5.704;2022-10-16T04:37:41;5.07;;;2.38;;
51718;SDS011;37795;53.236;5.704;2022-10-16T04:40:07;8.25;;;2.28;;
51718;SDS011;37795;53.236;5.704;2022-10-16T04:42:33;4.72;;;2.40;;
51718;SDS011;37795;53.236;5.704;2022-10-16T04:44:58;3.77;;;2.00;;
51718;SDS011;37795;53.236;5.704;2022-10-16T04:47:24;4.20;;;2.27;;
51718;SDS011;37795;53.236;5.704;2022-10-16T04:49:50;4.35;;;2.13;;
51718;SDS011;37795;53.236;5.704;2022-10-16T04:52:15;4.15;;;2.00;;
51718;SDS011;37795;53.236;5.704;2022-10-16T04:54:42;4.00;;;1.98;;
51718;SDS011;37795;53.236;5.704;2022-10-16T04:57:10;4.45;;;2.00;;
51718;SDS011;37795;53.236;5.704;2022-10-16T04:59:36;4.40;;;1.98;;
51718;SDS011;37795;53.236;5.704;2022-10-16T05:02:02;5.40;;;1.88;;
51718;SDS011;37795;53.236;5.704;2022-10-16T05:04:28;5.72;;;2.15;;
51718;SDS011;37795;53.236;5.704;2022-10-16T05:06:54;7.22;;;2.50;;
51718;SDS011;37795;53.236;5.704;2022-10-16T05:09:19;4.75;;;1.90;;
51718;SDS011;37795;53.236;5.704;2022-10-16T05:11:45;4.20;;;1.70;;
51718;SDS011;37795;53.236;5.704;2022-10-16T05:14:11;6.60;;;2.20;;
51718;SDS011;37795;53.236;5.704;2022-10-16T05:16:37;4.32;;;2.08;;
51718;SDS011;37795;53.236;5.704;2022-10-16T05:19:02;6.37;;;2.10;;
51718;SDS011;37795;53.236;5.704;2022-10-16T05:21:28;8.07;;;2.47;;
51718;SDS011;37795;53.236;5.704;2022-10-16T05:23:54;4.00;;;1.90;;
51718;SDS011;37795;53.236;5.704;2022-10-16T05:26:20;6.05;;;2.17;;
51718;SDS011;37795;53.236;5.704;2022-10-16T05:28:46;6.03;;;2.15;;
51718;SDS011;37795;53.236;5.704;2022-10-16T05:31:11;8.60;;;2.42;;
51718;SDS011;37795;53.236;5.704;2022-10-16T05:33:37;4.00;;;2.30;;
51718;SDS011;37795;53.236;5.704;2022-10-16T05:36:04;5.57;;;2.30;;
51718;SDS011;37795;53.236;5.704;2022-10-16T05:38:32;6.82;;;2.13;;
51718;SDS011;37795;53.236;5.704;2022-10-16T05:40:59;4.63;;;2.37;;
51718;SDS011;37795;53.236;5.704;2022-10-16T05:43:26;6.00;;;2.45;;
51718;SDS011;37795;53.236;5.704;2022-10-16T05:45:54;3.55;;;2.58;;
51718;SDS011;37795;53.236;5.704;2022-10-16T05:48:21;4.55;;;2.70;;
51718;SDS011;37795;53.236;5.704;2022-10-16T05:50:47;5.72;;;3.05;;
51718;SDS011;37795;53.236;5.704;2022-10-16T05:53:13;7.57;;;2.80;;
51718;SDS011;37795;53.236;5.704;2022-10-16T05:55:38;3.92;;;2.72;;
51718;SDS011;37795;53.236;5.704;2022-10-16T05:58:04;7.18;;;2.50;;
51718;SDS011;37795;53.236;5.704;2022-10-16T06:00:30;6.67;;;3.07;;
51718;SDS011;37795;53.236;5.704;2022-10-16T06:02:55;6.50;;;2.73;;
51718;SDS011;37795;53.236;5.704;2022-10-16T06:05:21;8.40;;;3.05;;
51718;SDS011;37795;53.236;5.704;2022-10-16T06:07:47;5.07;;;2.95;;
51718;SDS011;37795;53.236;5.704;2022-10-16T06:10:12;5.20;;;2.53;;
51718;SDS011;37795;53.236;5.704;2022-10-16T06:12:38;4.50;;;2.27;;
51718;SDS011;37795;53.236;5.704;2022-10-16T06:15:04;6.77;;;2.87;;
51718;SDS011;37795;53.236;5.704;2022-10-16T06:17:30;9.32;;;3.00;;
51718;SDS011;37795;53.236;5.704;2022-10-16T06:19:55;8.60;;;3.00;;
51718;SDS011;37795;53.236;5.704;2022-10-16T06:22:21;8.73;;;2.63;;
51718;SDS011;37795;53.236;5.704;2022-10-16T06:24:46;7.40;;;2.95;;
51718;SDS011;37795;53.236;5.704;2022-10-16T06:27:12;7.10;;;2.67;;
51718;SDS011;37795;53.236;5.704;2022-10-16T06:29:38;5.53;;;3.10;;
51718;SDS011;37795;53.236;5.704;2022-10-16T06:32:04;8.57;;;2.97;;
51718;SDS011;37795;53.236;5.704;2022-10-16T06:34:29;6.40;;;3.28;;
51718;SDS011;37795;53.236;5.704;2022-10-16T06:36:55;8.55;;;2.88;;
51718;SDS011;37795;53.236;5.704;2022-10-16T06:39:21;7.47;;;2.90;;
51718;SDS011;37795;53.236;5.704;2022-10-16T06:41:46;10.83;;;3.07;;
51718;SDS011;37795;53.236;5.704;2022-10-16T06:44:12;7.27;;;2.63;;
51718;SDS011;37795;53.236;5.704;2022-10-16T06:46:38;6.38;;;3.03;;
51718;SDS011;37795;53.236;5.704;2022-10-16T06:49:03;7.60;;;2.80;;
51718;SDS011;37795;53.236;5.704;2022-10-16T06:51:29;10.17;;;2.93;;
51718;SDS011;37795;53.236;5.704;2022-10-16T06:59:51;7.18;;;2.40;;
51718;SDS011;37795;53.236;5.704;2022-10-16T07:02:17;7.13;;;2.47;;
51718;SDS011;37795;53.236;5.704;2022-10-16T07:04:43;10.00;;;2.77;;
51718;SDS011;37795;53.236;5.704;2022-10-16T07:07:08;7.17;;;2.87;;
51718;SDS011;37795;53.236;5.704;2022-10-16T07:09:34;7.72;;;2.83;;
51718;SDS011;37795;53.236;5.704;2022-10-16T07:12:00;6.85;;;2.80;;
51718;SDS011;37795;53.236;5.704;2022-10-16T07:14:25;5.45;;;2.88;;
51718;SDS011;37795;53.236;5.704;2022-10-16T07:16:51;5.80;;;2.37;;
51718;SDS011;37795;53.236;5.704;2022-10-16T07:19:17;6.63;;;3.37;;
51718;SDS011;37795;53.236;5.704;2022-10-16T07:21:43;5.43;;;2.67;;
51718;SDS011;37795;53.236;5.704;2022-10-16T07:24:13;8.63;;;3.13;;
51718;SDS011;37795;53.236;5.704;2022-10-16T07:26:41;6.43;;;2.85;;
51718;SDS011;37795;53.236;5.704;2022-10-16T07:29:19;5.47;;;2.70;;
51718;SDS011;37795;53.236;5.704;2022-10-16T07:31:46;5.15;;;2.42;;
51718;SDS011;37795;53.236;5.704;2022-10-16T07:34:13;5.45;;;2.80;;
51718;SDS011;37795;53.236;5.704;2022-10-16T07:36:40;3.92;;;2.33;;
51718;SDS011;37795;53.236;5.704;2022-10-16T07:39:06;7.67;;;2.10;;
51718;SDS011;37795;53.236;5.704;2022-10-16T07:41:32;7.30;;;2.20;;
51718;SDS011;37795;53.236;5.704;2022-10-16T07:44:01;5.17;;;2.77;;
51718;SDS011;37795;53.236;5.704;2022-10-16T07:46:28;5.70;;;2.70;;
51718;SDS011;37795;53.236;5.704;2022-10-16T07:48:54;7.40;;;2.97;;
51718;SDS011;37795;53.236;5.704;2022-10-16T07:51:21;8.52;;;3.05;;
51718;SDS011;37795;53.236;5.704;2022-10-16T07:53:48;3.90;;;2.88;;
51718;SDS011;37795;53.236;5.704;2022-10-16T07:56:14;6.75;;;3.17;;
51718;SDS011;37795;53.236;5.704;2022-10-16T07:58:41;9.30;;;3.47;;
51718;SDS011;37795;53.236;5.704;2022-10-16T08:01:08;8.38;;;3.25;;
51718;SDS011;37795;53.236;5.704;2022-10-16T08:03:36;6.82;;;3.45;;
51718;SDS011;37795;53.236;5.704;2022-10-16T08:06:02;5.80;;;2.72;;
51718;SDS011;37795;53.236;5.704;2022-10-16T08:08:28;10.77;;;5.27;;
51718;SDS011;37795;53.236;5.704;2022-10-16T08:10:54;9.17;;;3.50;;
51718;SDS011;37795;53.236;5.704;2022-10-16T08:13:20;7.88;;;3.22;;
51718;SDS011;37795;53.236;5.704;2022-10-16T08:15:46;7.57;;;3.30;;
51718;SDS011;37795;53.236;5.704;2022-10-16T08:18:13;7.30;;;4.50;;
51718;SDS011;37795;53.236;5.704;2022-10-16T08:20:39;6.25;;;3.00;;
51718;SDS011;37795;53.236;5.704;2022-10-16T08:23:06;7.93;;;3.58;;
51718;SDS011;37795;53.236;5.704;2022-10-16T08:25:34;7.22;;;2.95;;
51718;SDS011;37795;53.236;5.704;2022-10-16T08:28:02;6.28;;;2.42;;
51718;SDS011;37795;53.236;5.704;2022-10-16T08:30:32;8.43;;;2.75;;
51718;SDS011;37795;53.236;5.704;2022-10-16T08:32:58;6.07;;;2.67;;
51718;SDS011;37795;53.236;5.704;2022-10-16T08:35:24;10.10;;;3.00;;
51718;SDS011;37795;53.236;5.704;2022-10-16T08:37:50;6.47;;;3.00;;
51718;SDS011;37795;53.236;5.704;2022-10-16T08:40:19;5.43;;;2.88;;
51718;SDS011;37795;53.236;5.704;2022-10-16T08:51:06;8.63;;;2.97;;
51718;SDS011;37795;53.236;5.704;2022-10-16T08:56:22;8.33;;;2.87;;
51718;SDS011;37795;53.236;5.704;2022-10-16T08:58:49;6.03;;;3.00;;
51718;SDS011;37795;53.236;5.704;2022-10-16T09:01:17;8.43;;;3.03;;
51718;SDS011;37795;53.236;5.704;2022-10-16T09:06:54;11.27;;;3.78;;
51718;SDS011;37795;53.236;5.704;2022-10-16T09:25:45;11.68;;;4.32;;
51718;SDS011;37795;53.236;5.704;2022-10-16T09:28:14;10.63;;;3.70;;
51718;SDS011;37795;53.236;5.704;2022-10-16T09:30:40;10.73;;;3.92;;
51718;SDS011;37795;53.236;5.704;2022-10-16T09:33:06;14.20;;;4.57;;
51718;SDS011;37795;53.236;5.704;2022-10-16T09:35:42;11.55;;;4.60;;
51718;SDS011;37795;53.236;5.704;2022-10-16T09:38:20;11.43;;;4.22;;
51718;SDS011;37795;53.236;5.704;2022-10-16T09:40:57;11.55;;;4.25;;
51718;SDS011;37795;53.236;5.704;2022-10-16T09:43:30;9.43;;;4.47;;
51718;SDS011;37795;53.236;5.704;2022-10-16T09:46:34;12.80;;;4.88;;
51718;SDS011;37795;53.236;5.704;2022-10-16T09:49:04;10.63;;;4.93;;
51718;SDS011;37795;53.236;5.704;2022-10-16T09:51:43;12.95;;;4.80;;
51718;SDS011;37795;53.236;5.704;2022-10-16T09:56:35;13.60;;;5.03;;
51718;SDS011;37795;53.236;5.704;2022-10-16T09:59:11;15.40;;;5.20;;
51718;SDS011;37795;53.236;5.704;2022-10-16T10:04:05;17.88;;;4.53;;
51718;SDS011;37795;53.236;5.704;2022-10-16T10:11:57;15.73;;;4.95;;
51718;SDS011;37795;53.236;5.704;2022-10-16T10:14:41;10.70;;;3.93;;
51718;SDS011;37795;53.236;5.704;2022-10-16T10:17:20;13.15;;;4.75;;
51718;SDS011;37795;53.236;5.704;2022-10-16T10:19:49;12.80;;;4.93;;
51718;SDS011;37795;53.236;5.704;2022-10-16T10:24:54;13.70;;;4.50;;
51718;SDS011;37795;53.236;5.704;2022-10-16T10:30:47;9.93;;;4.50;;
51718;SDS011;37795;53.236;5.704;2022-10-16T10:47:38;13.63;;;4.43;;
51718;SDS011;37795;53.236;5.704;2022-10-16T10:50:33;13.15;;;4.45;;
51718;SDS011;37795;53.236;5.704;2022-10-16T11:02:41;10.30;;;3.80;;
51718;SDS011;37795;53.236;5.704;2022-10-16T11:08:11;11.55;;;4.57;;
51718;SDS011;37795;53.236;5.704;2022-10-16T11:10:47;9.33;;;3.70;;
51718;SDS011;37795;53.236;5.704;2022-10-16T11:13:21;12.23;;;4.30;;
51718;SDS011;37795;53.236;5.704;2022-10-16T11:15:48;14.38;;;4.35;;
51718;SDS011;37795;53.236;5.704;2022-10-16T11:18:21;15.33;;;4.60;;
51718;SDS011;37795;53.236;5.704;2022-10-16T11:21:14;15.45;;;4.63;;
51718;SDS011;37795;53.236;5.704;2022-10-16T11:23:47;9.70;;;3.73;;
51718;SDS011;37795;53.236;5.704;2022-10-16T11:26:24;13.20;;;4.00;;
51718;SDS011;37795;53.236;5.704;2022-10-16T11:28:54;11.18;;;3.92;;
51718;SDS011;37795;53.236;5.704;2022-10-16T11:31:23;13.15;;;4.75;;
51718;SDS011;37795;53.236;5.704;2022-10-16T11:34:05;11.00;;;4.07;;
51718;SDS011;37795;53.236;5.704;2022-10-16T11:36:51;12.95;;;4.10;;
51718;SDS011;37795;53.236;5.704;2022-10-16T11:41:55;11.70;;;3.92;;
51718;SDS011;37795;53.236;5.704;2022-10-16T11:47:19;9.45;;;3.53;;
51718;SDS011;37795;53.236;5.704;2022-10-16T11:55:21;14.38;;;3.95;;
51718;SDS011;37795;53.236;5.704;2022-10-16T11:58:06;10.07;;;3.92;;
51718;SDS011;37795;53.236;5.704;2022-10-16T12:00:45;10.35;;;3.83;;
51718;SDS011;37795;53.236;5.704;2022-10-16T12:08:50;9.40;;;3.88;;
51718;SDS011;37795;53.236;5.704;2022-10-16T12:13:46;9.60;;;3.58;;
51718;SDS011;37795;53.236;5.704;2022-10-16T12:18:43;6.57;;;2.87;;
51718;SDS011;37795;53.236;5.704;2022-10-16T12:21:10;10.38;;;3.55;;
51718;SDS011;37795;53.236;5.704;2022-10-16T12:23:50;6.32;;;3.13;;
51718;SDS011;37795;53.236;5.704;2022-10-16T12:26:24;9.65;;;3.45;;
51718;SDS011;37795;53.236;5.704;2022-10-16T12:28:51;11.95;;;3.30;;
51718;SDS011;37795;53.236;5.704;2022-10-16T12:31:17;11.25;;;3.42;;
51718;SDS011;37795;53.236;5.704;2022-10-16T12:33:56;15.38;;;4.53;;
51718;SDS011;37795;53.236;5.704;2022-10-16T12:36:29;8.40;;;3.25;;
51718;SDS011;37795;53.236;5.704;2022-10-16T12:38:57;9.57;;;3.38;;
51718;SDS011;37795;53.236;5.704;2022-10-16T12:41:24;11.65;;;3.85;;
51718;SDS011;37795;53.236;5.704;2022-10-16T12:44:01;12.60;;;3.92;;
51718;SDS011;37795;53.236;5.704;2022-10-16T12:49:56;8.65;;;3.13;;
51718;SDS011;37795;53.236;5.704;2022-10-16T12:51:53;8.90;;;2.90;;
51718;SDS011;37795;53.236;5.704;2022-10-16T12:54:21;10.25;;;3.92;;
51718;SDS011;37795;53.236;5.704;2022-10-16T12:59:49;11.20;;;3.95;;
51718;SDS011;37795;53.236;5.704;2022-10-16T13:05:54;11.55;;;4.00;;
51718;SDS011;37795;53.236;5.704;2022-10-16T13:11:06;11.68;;;4.00;;
51718;SDS011;37795;53.236;5.704;2022-10-16T13:21:54;12.95;;;4.03;;
51718;SDS011;37795;53.236;5.704;2022-10-16T13:30:10;10.35;;;3.80;;
51718;SDS011;37795;53.236;5.704;2022-10-16T13:32:47;12.50;;;3.55;;
51718;SDS011;37795;53.236;5.704;2022-10-16T13:35:21;8.63;;;3.58;;
51718;SDS011;37795;53.236;5.704;2022-10-16T13:38:02;13.18;;;3.35;;
51718;SDS011;37795;53.236;5.704;2022-10-16T13:40:29;11.30;;;3.60;;
51718;SDS011;37795;53.236;5.704;2022-10-16T13:42:54;12.67;;;4.10;;
51718;SDS011;37795;53.236;5.704;2022-10-16T13:45:22;14.20;;;4.20;;
51718;SDS011;37795;53.236;5.704;2022-10-16T13:47:50;12.85;;;3.88;;
51718;SDS011;37795;53.236;5.704;2022-10-16T13:50:27;11.30;;;3.95;;
51718;SDS011;37795;53.236;5.704;2022-10-16T13:53:02;9.43;;;3.60;;
51718;SDS011;37795;53.236;5.704;2022-10-16T13:55:32;11.10;;;3.53;;
51718;SDS011;37795;53.236;5.704;2022-10-16T13:58:07;9.68;;;3.67;;
51718;SDS011;37795;53.236;5.704;2022-10-16T14:00:36;9.05;;;3.10;;
51718;SDS011;37795;53.236;5.704;2022-10-16T14:03:06;9.60;;;3.53;;
51718;SDS011;37795;53.236;5.704;2022-10-16T14:05:49;10.68;;;3.22;;
51718;SDS011;37795;53.236;5.704;2022-10-16T14:08:20;9.68;;;3.25;;
51718;SDS011;37795;53.236;5.704;2022-10-16T14:10:48;9.30;;;3.15;;
51718;SDS011;37795;53.236;5.704;2022-10-16T14:13:32;8.53;;;2.87;;
51718;SDS011;37795;53.236;5.704;2022-10-16T14:16:05;7.47;;;3.08;;
51718;SDS011;37795;53.236;5.704;2022-10-16T14:18:34;9.70;;;3.28;;
51718;SDS011;37795;53.236;5.704;2022-10-16T14:21:03;8.95;;;3.00;;
51718;SDS011;37795;53.236;5.704;2022-10-16T14:28:34;9.02;;;2.92;;
51718;SDS011;37795;53.236;5.704;2022-10-16T14:34:02;8.80;;;3.35;;
51718;SDS011;37795;53.236;5.704;2022-10-16T14:36:28;7.45;;;3.63;;
51718;SDS011;37795;53.236;5.704;2022-10-16T14:41:26;9.40;;;3.45;;
51718;SDS011;37795;53.236;5.704;2022-10-16T14:43:54;13.48;;;3.78;;
51718;SDS011;37795;53.236;5.704;2022-10-16T14:46:23;8.57;;;3.35;;
51718;SDS011;37795;53.236;5.704;2022-10-16T14:49:00;13.00;;;3.63;;
51718;SDS011;37795;53.236;5.704;2022-10-16T14:51:28;6.78;;;2.95;;
51718;SDS011;37795;53.236;5.704;2022-10-16T14:53:54;10.93;;;3.43;;
51718;SDS011;37795;53.236;5.704;2022-10-16T14:56:21;10.53;;;4.10;;
51718;SDS011;37795;53.236;5.704;2022-10-16T14:58:49;12.43;;;3.83;;
51718;SDS011;37795;53.236;5.704;2022-10-16T15:01:16;10.85;;;3.92;;
51718;SDS011;37795;53.236;5.704;2022-10-16T15:03:42;11.90;;;4.53;;
51718;SDS011;37795;53.236;5.704;2022-10-16T15:06:12;11.33;;;3.73;;
51718;SDS011;37795;53.236;5.704;2022-10-16T15:08:39;12.73;;;4.10;;
51718;SDS011;37795;53.236;5.704;2022-10-16T15:11:05;14.25;;;4.53;;
51718;SDS011;37795;53.236;5.704;2022-10-16T15:13:44;12.02;;;4.30;;
51718;SDS011;37795;53.236;5.704;2022-10-16T15:16:11;7.65;;;3.55;;
51718;SDS011;37795;53.236;5.704;2022-10-16T15:18:39;14.35;;;5.20;;
51718;SDS011;37795;53.236;5.704;2022-10-16T15:21:05;9.65;;;3.67;;
51718;SDS011;37795;53.236;5.704;2022-10-16T15:23:31;12.07;;;4.10;;
51718;SDS011;37795;53.236;5.704;2022-10-16T15:25:56;14.85;;;4.60;;
51718;SDS011;37795;53.236;5.704;2022-10-16T15:28:22;8.18;;;4.40;;
51718;SDS011;37795;53.236;5.704;2022-10-16T15:30:51;10.07;;;3.80;;
51718;SDS011;37795;53.236;5.704;2022-10-16T15:33:19;10.93;;;3.55;;
51718;SDS011;37795;53.236;5.704;2022-10-16T15:35:51;8.50;;;3.50;;
51718;SDS011;37795;53.236;5.704;2022-10-16T15:38:17;10.25;;;3.58;;
51718;SDS011;37795;53.236;5.704;2022-10-16T15:40:45;15.98;;;4.13;;
51718;SDS011;37795;53.236;5.704;2022-10-16T15:43:11;10.02;;;4.15;;
51718;SDS011;37795;53.236;5.704;2022-10-16T15:45:37;12.35;;;4.95;;
51718;SDS011;37795;53.236;5.704;2022-10-16T15:48:03;12.38;;;4.47;;
51718;SDS011;37795;53.236;5.704;2022-10-16T15:50:29;14.15;;;4.85;;
51718;SDS011;37795;53.236;5.704;2022-10-16T15:52:56;12.15;;;4.57;;
51718;SDS011;37795;53.236;5.704;2022-10-16T15:55:22;8.15;;;5.05;;
51718;SDS011;37795;53.236;5.704;2022-10-16T15:57:48;11.88;;;4.40;;
51718;SDS011;37795;53.236;5.704;2022-10-16T16:00:16;9.60;;;4.30;;
51718;SDS011;37795;53.236;5.704;2022-10-16T16:02:50;12.15;;;4.03;;
51718;SDS011;37795;53.236;5.704;2022-10-16T16:05:17;14.05;;;4.80;;
51718;SDS011;37795;53.236;5.704;2022-10-16T16:07:44;10.75;;;3.90;;
51718;SDS011;37795;53.236;5.704;2022-10-16T16:10:10;10.23;;;4.67;;
51718;SDS011;37795;53.236;5.704;2022-10-16T16:12:37;13.40;;;6.60;;
51718;SDS011;37795;53.236;5.704;2022-10-16T16:15:06;17.67;;;5.85;;
51718;SDS011;37795;53.236;5.704;2022-10-16T16:17:33;12.88;;;5.65;;
51718;SDS011;37795;53.236;5.704;2022-10-16T16:19:59;16.55;;;5.68;;
51718;SDS011;37795;53.236;5.704;2022-10-16T16:22:26;10.93;;;5.13;;
51718;SDS011;37795;53.236;5.704;2022-10-16T16:24:52;10.32;;;5.57;;
51718;SDS011;37795;53.236;5.704;2022-10-16T16:27:18;13.37;;;4.63;;
51718;SDS011;37795;53.236;5.704;2022-10-16T16:29:44;11.77;;;5.00;;
51718;SDS011;37795;53.236;5.704;2022-10-16T16:32:11;13.48;;;4.72;;
51718;SDS011;37795;53.236;5.704;2022-10-16T16:34:37;11.00;;;5.22;;
51718;SDS011;37795;53.236;5.704;2022-10-16T16:37:03;11.57;;;5.10;;
51718;SDS011;37795;53.236;5.704;2022-10-16T16:39:28;10.30;;;5.07;;
51718;SDS011;37795;53.236;5.704;2022-10-16T16:41:55;10.73;;;4.57;;
51718;SDS011;37795;53.236;5.704;2022-10-16T16:44:22;13.20;;;6.13;;
51718;SDS011;37795;53.236;5.704;2022-10-16T16:46:47;16.52;;;6.97;;
51718;SDS011;37795;53.236;5.704;2022-10-16T16:49:13;17.23;;;6.90;;
51718;SDS011;37795;53.236;5.704;2022-10-16T16:51:40;14.27;;;6.82;;
51718;SDS011;37795;53.236;5.704;2022-10-16T16:54:06;13.33;;;6.20;;
51718;SDS011;37795;53.236;5.704;2022-10-16T16:56:33;9.73;;;5.05;;
51718;SDS011;37795;53.236;5.704;2022-10-16T16:58:59;14.82;;;7.63;;
51718;SDS011;37795;53.236;5.704;2022-10-16T17:01:26;11.00;;;6.88;;
51718;SDS011;37795;53.236;5.704;2022-10-16T17:03:54;12.48;;;5.90;;
51718;SDS011;37795;53.236;5.704;2022-10-16T17:06:21;11.68;;;4.65;;
51718;SDS011;37795;53.236;5.704;2022-10-16T17:08:49;10.30;;;4.72;;
51718;SDS011;37795;53.236;5.704;2022-10-16T17:11:16;18.90;;;5.38;;
51718;SDS011;37795;53.236;5.704;2022-10-16T17:13:43;10.20;;;4.57;;
51718;SDS011;37795;53.236;5.704;2022-10-16T17:16:09;10.05;;;6.35;;
51718;SDS011;37795;53.236;5.704;2022-10-16T17:18:36;12.20;;;7.53;;
51718;SDS011;37795;53.236;5.704;2022-10-16T17:21:03;10.27;;;8.60;;
51718;SDS011;37795;53.236;5.704;2022-10-16T17:23:31;18.20;;;7.80;;
51718;SDS011;37795;53.236;5.704;2022-10-16T17:26:02;15.00;;;6.07;;
51718;SDS011;37795;53.236;5.704;2022-10-16T17:28:29;16.55;;;6.85;;
51718;SDS011;37795;53.236;5.704;2022-10-16T17:30:55;13.80;;;5.67;;
51718;SDS011;37795;53.236;5.704;2022-10-16T17:33:20;13.45;;;5.75;;